Washington, DC (20527)

6:29 PM EDT on August 27, 2016 (GMT -0400)
The Washington Post | | Change Station

Elev 151 ft 38.90 °N, 77.03 °W | Updated 5 seconds ago

Scattered Clouds
Scattered Clouds
90.9 °F
Feels Like 92 °F
N
4.0
Wind Variable Wind from ENE
Gusts 5.0 mph

Today
High -- | Low -- °F
--% Chance of Precip.
Yesterday
High -- | Low -- °F
Precip. -- in
Pressure 30.14 in
Visibility 10.0 miles
Clouds Few 5500 ft
Scattered Clouds 25000 ft
Heat Index 92 °F
Dew Point 64 °F
Humidity 41%
Rainfall 0.00 in
Snow Depth Not available.
6:32 AM 7:45 PM
Waning Crescent, 21% visible
METAR KDCA 272152Z 15005KT 10SM FEW055 SCT250 32/18 A3013 RMK AO2 SLP204 T03170183
Pressure 30.14 in
Visibility 10.0 miles
Clouds Few 5500 ft
Scattered Clouds 25000 ft
Heat Index 92 °F
Dew Point 64 °F
Humidity 41%
Rainfall 0.00 in
Snow Depth Not available.
6:32 AM 7:45 PM
Waning Crescent, 21% visible
METAR KDCA 272152Z 15005KT 10SM FEW055 SCT250 32/18 A3013 RMK AO2 SLP204 T03170183

10-Day Weather Forecast

Almanac

Astronomy

Aug. 27, 2016 Rise Set
Actual Time
Civil Twilight
Nautical Twilight
Astronomical Twilight
Moon
Length of Visible Light
Length of Day
Tomorrow will be .
, % of the Moon is Illuminated

Today's Extremes

State Highs State Lows

Community

WunderPhotos

Upload Photos

1,935,455 photos uploaded!

WunderBlog® & News

Nearby

Air Quality

  Air Quality AQ Index Pollutant
Not available.

Snow Depth

Station Depth Elevation

Earthquake Activity

City Distance Mag. Time & Date
Minimum magnitude displayed is 2.5.

Coastal Water Temperatures

Place Temperature

Stations

Nearby Weather Stations

Station Location Temp. Windchill Dew Point Humidity Wind Precip. Elev Updated Type
                   

Watches & Warnings

There are currently no watches in effect.